Time;durP1;ratioP1;P1;durP2;ratioP2;P2;SDS_P1;SDS_P2;PMS_P1;PMS_P2;Temp;Humidity;BMP_temperature;BMP_pressure;BME280_temperature;BME280_humidity;BME280_pressure;Samples;Min_cycle;Max_cycle;Signal;HPM_P1;HPM_P2
2021/05/26 00:01:52;;;;;;;7.57;3.70;;;7.50;99.90;;;;;;4421519;28;655617;-68
2021/05/26 00:04:40;;;;;;;7.30;3.80;;;7.50;99.90;;;;;;4403151;28;655788;-68
2021/05/26 00:07:27;;;;;;;7.37;3.53;;;7.50;99.90;;;;;;4425782;28;655535;-68
2021/05/26 00:10:14;;;;;;;11.87;4.07;;;7.40;99.90;;;;;;4427348;28;656000;-67
2021/05/26 00:13:01;;;;;;;7.72;4.05;;;7.50;99.90;;;;;;4433328;28;657007;-67
2021/05/26 00:15:49;;;;;;;8.37;3.60;;;7.50;99.90;;;;;;4412979;28;656318;-67
2021/05/26 00:18:36;;;;;;;8.07;3.70;;;7.50;99.90;;;;;;4426978;28;656366;-68
2021/05/26 00:21:24;;;;;;;8.23;3.70;;;7.40;99.90;;;;;;4414863;28;655447;-68
2021/05/26 00:24:12;;;;;;;9.27;3.50;;;7.40;99.90;;;;;;4432444;28;655972;-67
2021/05/26 00:26:59;;;;;;;7.20;3.90;;;7.40;99.90;;;;;;4388624;28;655912;-68
2021/05/26 00:29:47;;;;;;;5.80;3.50;;;7.40;99.90;;;;;;4451077;28;656175;-68
2021/05/26 00:32:34;;;;;;;6.03;3.47;;;7.30;99.90;;;;;;4412255;28;655454;-67
2021/05/26 00:35:21;;;;;;;9.03;3.27;;;7.30;99.90;;;;;;4434544;28;655756;-67
2021/05/26 00:38:09;;;;;;;7.13;3.50;;;7.30;99.90;;;;;;4414178;28;656351;-68
2021/05/26 00:40:56;;;;;;;10.60;3.50;;;7.30;99.90;;;;;;4447290;28;656161;-68
2021/05/26 00:43:43;;;;;;;7.63;3.50;;;7.20;99.90;;;;;;4416604;28;656854;-67
2021/05/26 00:46:30;;;;;;;7.33;3.33;;;7.30;99.90;;;;;;4446051;28;656559;-67
2021/05/26 00:49:17;;;;;;;6.60;3.35;;;7.30;99.90;;;;;;4405220;28;656701;-68
2021/05/26 00:52:05;;;;;;;7.28;3.60;;;7.20;99.90;;;;;;4435639;28;655816;-68
2021/05/26 00:54:53;;;;;;;5.87;3.60;;;7.20;99.90;;;;;;4432528;28;654961;-69
2021/05/26 00:57:41;;;;;;;6.40;3.53;;;7.20;99.90;;;;;;4429624;28;656618;-68
2021/05/26 01:00:29;;;;;;;6.27;3.30;;;7.20;99.90;;;;;;4419808;28;655388;-67
2021/05/26 01:03:17;;;;;;;7.23;3.50;;;7.20;99.90;;;;;;4429805;28;655371;-67
2021/05/26 01:06:04;;;;;;;5.93;3.43;;;7.10;99.90;;;;;;4415993;28;655851;-67
2021/05/26 01:08:51;;;;;;;5.20;2.83;;;7.10;99.90;;;;;;4423501;28;655059;-67
2021/05/26 01:11:39;;;;;;;9.10;3.37;;;7.20;99.90;;;;;;4410442;28;655551;-67
2021/05/26 01:14:26;;;;;;;6.40;3.10;;;7.10;99.90;;;;;;4430215;28;655931;-68
2021/05/26 01:17:14;;;;;;;7.88;3.30;;;7.10;99.90;;;;;;4415393;28;655658;-68
2021/05/26 01:20:01;;;;;;;6.67;3.50;;;7.10;99.90;;;;;;4437519;28;655777;-67
2021/05/26 01:22:49;;;;;;;8.07;3.23;;;7.10;99.90;;;;;;4411043;28;655572;-67
2021/05/26 01:25:36;;;;;;;10.53;2.43;;;7.10;99.90;;;;;;4414434;28;655514;-68
2021/05/26 01:28:24;;;;;;;6.83;2.23;;;7.10;99.90;;;;;;4409664;28;656385;-67
2021/05/26 01:31:11;;;;;;;7.80;2.00;;;7.00;99.90;;;;;;4442678;28;656770;-67
2021/05/26 01:33:58;;;;;;;3.40;1.80;;;7.00;99.90;;;;;;4411374;28;655389;-68
2021/05/26 01:36:45;;;;;;;5.23;1.80;;;7.00;99.90;;;;;;4437392;28;656074;-67
2021/05/26 01:39:33;;;;;;;6.13;2.10;;;7.00;99.90;;;;;;4408978;28;656885;-69
2021/05/26 01:42:28;;;;;;;5.87;1.90;;;7.00;99.90;;;;;;4439610;28;657074;-67
2021/05/26 01:45:17;;;;;;;3.60;1.70;;;6.90;99.90;;;;;;4414998;28;655864;-67
2021/05/26 01:48:05;;;;;;;4.33;1.97;;;6.90;99.90;;;;;;4411613;28;656686;-67
2021/05/26 01:50:52;;;;;;;3.83;1.97;;;6.90;99.90;;;;;;4419349;28;655908;-69
2021/05/26 01:53:39;;;;;;;3.87;2.20;;;6.90;99.90;;;;;;4433256;28;655466;-67
2021/05/26 01:56:28;;;;;;;4.65;3.30;;;6.80;99.90;;;;;;4437828;28;655813;-67
2021/05/26 01:59:15;;;;;;;9.07;3.77;;;6.70;99.90;;;;;;4412260;28;656408;-67
2021/05/26 02:02:02;;;;;;;8.17;3.63;;;6.70;99.90;;;;;;4416468;28;655855;-69
2021/05/26 02:04:49;;;;;;;6.80;3.63;;;6.60;99.90;;;;;;4456294;28;655865;-67
2021/05/26 02:07:37;;;;;;;5.33;3.33;;;6.60;99.90;;;;;;4456137;28;655694;-67
2021/05/26 02:13:26;;;;;;;3.97;2.30;;;6.60;99.90;;;;;;4411606;28;656005;-68
2021/05/26 02:16:13;;;;;;;3.27;2.23;;;6.50;99.90;;;;;;4415292;28;655446;-68
2021/05/26 02:19:00;;;;;;;6.97;2.33;;;6.50;99.90;;;;;;4437442;28;656748;-67
2021/05/26 02:21:47;;;;;;;5.43;2.40;;;6.50;99.90;;;;;;4422858;28;655663;-69
2021/05/26 02:24:35;;;;;;;7.90;2.77;;;6.50;99.90;;;;;;4454918;28;656850;-68
2021/05/26 02:27:22;;;;;;;4.47;2.30;;;6.50;99.90;;;;;;4429489;28;655584;-69
2021/05/26 02:30:11;;;;;;;7.87;2.33;;;6.50;99.90;;;;;;4437448;28;655315;-67
2021/05/26 02:32:58;;;;;;;7.93;2.33;;;6.50;99.90;;;;;;4413069;28;655765;-68
2021/05/26 02:35:45;;;;;;;4.23;2.90;;;6.50;99.90;;;;;;4433395;28;656636;-67
2021/05/26 02:38:33;;;;;;;7.93;3.80;;;6.50;99.90;;;;;;4415845;28;655419;-68
2021/05/26 02:41:20;;;;;;;6.27;4.20;;;6.40;99.90;;;;;;4432185;28;656298;-67
2021/05/26 02:44:07;;;;;;;8.37;3.60;;;6.40;99.90;;;;;;4431556;28;655721;-68
2021/05/26 02:46:56;;;;;;;5.90;3.53;;;6.30;99.90;;;;;;4433309;28;655938;-67
2021/05/26 02:49:43;;;;;;;6.47;3.40;;;6.20;99.90;;;;;;4417675;28;655778;-67
2021/05/26 02:52:30;;;;;;;10.90;3.50;;;6.20;99.90;;;;;;4419664;28;656623;-67
2021/05/26 02:55:21;;;;;;;11.83;3.73;;;6.20;99.90;;;;;;4429116;28;656160;-68
2021/05/26 02:58:08;;;;;;;8.53;3.63;;;6.10;99.90;;;;;;4410530;28;656374;-67
2021/05/26 03:00:55;;;;;;;4.23;2.50;;;6.00;99.90;;;;;;4434802;28;655973;-67
2021/05/26 03:03:43;;;;;;;8.73;4.07;;;5.90;99.90;;;;;;4414546;28;655382;-68
2021/05/26 03:06:30;;;;;;;6.83;3.90;;;5.80;99.90;;;;;;4436462;28;656256;-67
2021/05/26 03:09:17;;;;;;;5.77;3.10;;;5.70;99.90;;;;;;4408593;28;655824;-68
2021/05/26 03:12:05;;;;;;;8.13;3.80;;;5.70;99.90;;;;;;4436987;28;655764;-67
2021/05/26 03:14:52;;;;;;;6.47;3.40;;;5.60;99.90;;;;;;4419964;28;656668;-68
2021/05/26 03:17:40;;;;;;;7.57;3.47;;;5.60;99.90;;;;;;4437197;28;656002;-67
2021/05/26 03:20:28;;;;;;;6.23;3.77;;;5.50;99.90;;;;;;4423560;28;655579;-67
2021/05/26 03:23:15;;;;;;;5.90;3.77;;;5.50;99.90;;;;;;4434319;28;656053;-66
2021/05/26 03:26:02;;;;;;;9.37;3.70;;;5.50;99.90;;;;;;4417702;28;655990;-68
2021/05/26 03:28:49;;;;;;;7.30;4.10;;;5.50;99.90;;;;;;4424115;28;655568;-67
2021/05/26 03:31:36;;;;;;;8.98;4.50;;;5.40;99.90;;;;;;4453775;28;655581;-67
2021/05/26 03:34:24;;;;;;;10.37;4.97;;;5.50;99.90;;;;;;4424232;28;655412;-67
2021/05/26 03:37:13;;;;;;;11.13;5.03;;;5.50;99.90;;;;;;4452266;28;656819;-67
2021/05/26 03:40:00;;;;;;;11.33;5.60;;;5.60;99.90;;;;;;4423839;28;657318;-67
2021/05/26 03:42:47;;;;;;;9.70;5.30;;;5.60;99.90;;;;;;4432636;28;657276;-67
2021/05/26 03:45:35;;;;;;;12.10;5.33;;;5.70;99.90;;;;;;4448995;28;656285;-67
2021/05/26 03:48:21;;;;;;;12.40;5.57;;;5.70;99.90;;;;;;4456650;28;655979;-67
2021/05/26 03:51:09;;;;;;;11.50;5.50;;;5.80;99.90;;;;;;4423161;28;657337;-67
2021/05/26 03:53:57;;;;;;;10.33;4.77;;;5.90;99.90;;;;;;4445279;28;657478;-67
2021/05/26 03:56:44;;;;;;;10.50;4.60;;;6.00;99.90;;;;;;4427642;28;657010;-67
2021/05/26 03:59:31;;;;;;;6.90;4.10;;;6.00;99.90;;;;;;4443115;28;656572;-68
2021/05/26 04:02:18;;;;;;;8.57;4.43;;;6.10;99.90;;;;;;4429094;28;655722;-67
2021/05/26 04:05:06;;;;;;;7.07;3.77;;;6.20;99.90;;;;;;4456899;28;656760;-67
2021/05/26 04:07:54;;;;;;;11.30;4.30;;;6.30;99.90;;;;;;4429773;28;655946;-68
2021/05/26 04:10:42;;;;;;;4.73;3.00;;;6.50;99.90;;;;;;4451928;28;656974;-67
2021/05/26 04:13:30;;;;;;;9.37;3.07;;;6.60;99.90;;;;;;4422837;28;656063;-67
2021/05/26 04:16:17;;;;;;;6.43;2.87;;;6.70;99.90;;;;;;4452190;28;655430;-68
2021/05/26 04:19:04;;;;;;;6.50;2.90;;;6.80;99.90;;;;;;4457216;28;655197;-67
2021/05/26 04:21:51;;;;;;;8.75;3.20;;;6.90;99.90;;;;;;4453125;28;655965;-67
2021/05/26 04:24:38;;;;;;;5.93;3.28;;;7.00;99.90;;;;;;4427191;28;655580;-67
2021/05/26 04:27:29;;;;;;;7.50;3.03;;;7.10;99.90;;;;;;4452874;28;656205;-67
2021/05/26 04:30:17;;;;;;;8.95;3.60;;;7.30;99.90;;;;;;4422385;28;655832;-67
2021/05/26 04:33:07;;;;;;;6.20;3.17;;;7.40;99.90;;;;;;4429745;28;656755;-67
2021/05/26 04:35:54;;;;;;;5.33;2.70;;;7.50;99.90;;;;;;4423160;28;656271;-67
2021/05/26 04:38:42;;;;;;;7.40;2.90;;;7.60;99.90;;;;;;4452669;28;655490;-67
2021/05/26 04:41:29;;;;;;;6.43;2.77;;;7.70;99.90;;;;;;4433186;28;656415;-67
2021/05/26 04:44:17;;;;;;;7.33;2.73;;;7.90;99.90;;;;;;4451750;28;656268;-67
2021/05/26 04:47:04;;;;;;;7.53;2.70;;;8.00;99.90;;;;;;4432401;28;656283;-67
2021/05/26 04:49:51;;;;;;;4.50;2.17;;;8.20;99.90;;;;;;4451509;28;655201;-67
2021/05/26 04:52:38;;;;;;;13.70;3.63;;;8.30;99.90;;;;;;4432997;28;655581;-67
2021/05/26 04:55:25;;;;;;;7.57;2.43;;;8.50;99.90;;;;;;4455395;28;658034;-67
2021/05/26 04:58:12;;;;;;;3.40;1.97;;;8.60;99.90;;;;;;4432956;28;655588;-68
2021/05/26 05:01:00;;;;;;;3.80;2.00;;;8.70;99.90;;;;;;4456416;28;655890;-68
2021/05/26 05:03:47;;;;;;;5.47;1.70;;;8.90;99.90;;;;;;4433539;28;655416;-67
2021/05/26 05:06:35;;;;;;;5.80;2.17;;;9.00;99.90;;;;;;4451935;28;656874;-67
2021/05/26 05:09:22;;;;;;;4.50;2.00;;;9.20;99.90;;;;;;4438950;28;655705;-68
2021/05/26 05:12:09;;;;;;;4.87;2.10;;;9.30;99.90;;;;;;4449597;28;655591;-67
2021/05/26 05:14:57;;;;;;;5.57;2.07;;;9.40;99.90;;;;;;4455529;28;655647;-67
2021/05/26 05:17:47;;;;;;;4.20;1.83;;;9.60;99.90;;;;;;4413925;28;656276;-67
2021/05/26 05:20:37;;;;;;;5.53;1.77;;;9.70;99.90;;;;;;4433241;28;655310;-67
2021/05/26 05:23:24;;;;;;;4.10;1.80;;;9.80;99.90;;;;;;4428824;28;656176;-67
2021/05/26 05:26:11;;;;;;;5.50;2.00;;;9.90;99.90;;;;;;4451886;28;655567;-67
2021/05/26 05:28:58;;;;;;;6.17;2.20;;;10.10;99.90;;;;;;4427474;28;655382;-67
2021/05/26 05:31:45;;;;;;;4.37;1.80;;;10.20;99.90;;;;;;4450639;28;656881;-69
2021/05/26 05:34:33;;;;;;;4.63;1.70;;;10.30;99.90;;;;;;4431617;28;656856;-68
2021/05/26 05:37:21;;;;;;;4.30;1.53;;;10.50;99.90;;;;;;4451151;28;656277;-69
2021/05/26 05:40:08;;;;;;;5.93;2.00;;;10.60;99.90;;;;;;4426577;28;656804;-67
2021/05/26 05:42:55;;;;;;;4.63;1.80;;;10.80;99.90;;;;;;4446261;28;656947;-67
2021/05/26 05:45:43;;;;;;;3.03;1.50;;;11.00;99.90;;;;;;4431874;28;656517;-68
2021/05/26 05:48:30;;;;;;;3.07;1.50;;;11.20;99.90;;;;;;4450278;28;657843;-68
2021/05/26 05:51:18;;;;;;;6.50;1.50;;;11.40;99.90;;;;;;4439128;28;656364;-68
2021/05/26 05:54:05;;;;;;;8.07;1.63;;;11.60;99.90;;;;;;4449965;28;657134;-67
2021/05/26 05:56:52;;;;;;;5.73;1.30;;;11.70;99.90;;;;;;4426979;28;656488;-68
2021/05/26 05:59:40;;;;;;;6.80;1.70;;;11.80;99.90;;;;;;4449820;28;657020;-67
2021/05/26 06:02:27;;;;;;;4.47;1.40;;;11.80;99.90;;;;;;4444304;28;656783;-68
2021/05/26 06:05:15;;;;;;;3.57;1.50;;;11.90;99.90;;;;;;4449690;28;657310;-67
2021/05/26 06:08:04;;;;;;;3.37;1.30;;;12.00;99.90;;;;;;4441228;28;656728;-68
2021/05/26 06:10:51;;;;;;;2.70;1.43;;;12.00;99.90;;;;;;4449214;28;657104;-67
2021/05/26 06:13:38;;;;;;;2.50;1.23;;;12.00;99.90;;;;;;4419657;28;656132;-66
2021/05/26 06:16:25;;;;;;;3.37;1.20;;;12.20;99.90;;;;;;4449788;28;657719;-67
2021/05/26 06:19:12;;;;;;;2.43;0.80;;;12.20;99.90;;;;;;4431084;28;656944;-68
2021/05/26 06:21:59;;;;;;;6.43;1.23;;;12.30;99.90;;;;;;4451095;28;657290;-67
2021/05/26 06:24:47;;;;;;;5.90;1.27;;;12.50;99.90;;;;;;4453271;28;657039;-67
2021/05/26 06:27:34;;;;;;;3.33;1.17;;;12.60;99.90;;;;;;4427181;28;657110;-67
2021/05/26 06:30:22;;;;;;;5.40;1.00;;;12.70;99.90;;;;;;4441982;28;657421;-67
2021/05/26 06:33:09;;;;;;;2.63;0.90;;;12.80;99.90;;;;;;4429748;28;657625;-67
2021/05/26 06:35:56;;;;;;;3.97;1.00;;;12.90;99.90;;;;;;4443953;28;656997;-67
2021/05/26 06:38:44;;;;;;;7.10;0.93;;;12.90;99.90;;;;;;4427858;28;656540;-67
2021/05/26 06:41:32;;;;;;;3.03;1.03;;;12.90;99.90;;;;;;4452989;28;656762;-67
2021/05/26 06:44:19;;;;;;;1.60;0.70;;;13.00;99.90;;;;;;4428752;28;657354;-67
2021/05/26 06:47:08;;;;;;;5.70;1.23;;;13.00;99.90;;;;;;4451817;28;656390;-66
2021/05/26 06:49:55;;;;;;;1.93;0.90;;;13.20;99.90;;;;;;4425362;28;657607;-67
2021/05/26 06:52:42;;;;;;;4.00;1.23;;;13.40;99.90;;;;;;4439487;28;656337;-68
2021/05/26 06:55:29;;;;;;;3.33;1.20;;;13.40;99.90;;;;;;4457388;28;656465;-67
2021/05/26 06:58:17;;;;;;;1.90;1.10;;;13.60;99.90;;;;;;4453053;28;657260;-67
2021/05/26 07:01:04;;;;;;;5.07;1.40;;;13.50;99.90;;;;;;4431338;28;658020;-67
2021/05/26 07:03:51;;;;;;;3.47;1.40;;;13.60;99.90;;;;;;4453297;28;656580;-67
2021/05/26 07:06:38;;;;;;;6.17;1.40;;;13.80;99.90;;;;;;4433825;28;656487;-67
2021/05/26 07:09:25;;;;;;;2.30;0.83;;;13.80;99.90;;;;;;4447710;28;659149;-67
2021/05/26 07:12:12;;;;;;;4.20;1.10;;;14.20;99.90;;;;;;4427654;28;656770;-68
2021/05/26 07:15:00;;;;;;;6.90;1.00;;;14.40;99.90;;;;;;4456854;28;656757;-67
2021/05/26 07:17:47;;;;;;;4.07;0.90;;;14.20;99.90;;;;;;4434066;28;656535;-68
2021/05/26 07:20:35;;;;;;;2.50;0.97;;;13.90;99.90;;;;;;4442222;28;657088;-67
2021/05/26 07:23:22;;;;;;;8.07;0.90;;;13.80;99.90;;;;;;4451989;28;656334;-67
2021/05/26 07:26:09;;;;;;;5.70;1.40;;;13.90;99.90;;;;;;4422460;28;657533;-67
2021/05/26 07:28:56;;;;;;;4.73;0.83;;;13.80;99.90;;;;;;4451483;28;656375;-66
2021/05/26 07:31:44;;;;;;;3.77;0.80;;;14.00;99.90;;;;;;4432915;28;656434;-67
2021/05/26 07:34:31;;;;;;;3.80;1.30;;;14.00;99.90;;;;;;4452433;28;656591;-67
2021/05/26 07:37:18;;;;;;;1.27;0.90;;;14.00;99.90;;;;;;4433964;28;656297;-67
2021/05/26 07:40:06;;;;;;;2.57;0.90;;;14.10;99.90;;;;;;4452577;28;657871;-66
2021/05/26 07:42:53;;;;;;;3.20;0.87;;;14.30;99.90;;;;;;4431263;28;655987;-68
2021/05/26 07:45:40;;;;;;;2.40;0.70;;;14.70;99.90;;;;;;4452028;28;657088;-66
2021/05/26 07:48:28;;;;;;;4.33;1.00;;;15.00;99.90;;;;;;4441332;28;656666;-67
2021/05/26 07:51:17;;;;;;;4.50;0.70;;;15.00;99.90;;;;;;4449444;28;657398;-67
2021/05/26 07:54:06;;;;;;;5.17;0.80;;;15.20;99.90;;;;;;4420731;28;657352;-67
2021/05/26 07:56:53;;;;;;;6.63;1.13;;;15.40;99.90;;;;;;4420184;28;657243;-67
2021/05/26 07:59:40;;;;;;;1.97;0.90;;;15.90;99.90;;;;;;4451121;28;656986;-67
2021/05/26 08:02:27;;;;;;;4.57;0.90;;;15.90;99.90;;;;;;4438228;28;656696;-67
2021/05/26 08:05:16;;;;;;;2.33;0.80;;;15.90;99.90;;;;;;4456291;28;656486;-67
2021/05/26 08:08:03;;;;;;;5.33;1.00;;;16.10;99.90;;;;;;4426787;28;656602;-68
2021/05/26 08:10:50;;;;;;;1.97;0.70;;;16.20;99.90;;;;;;4455361;28;657300;-67
2021/05/26 08:13:37;;;;;;;3.40;0.77;;;16.10;99.90;;;;;;4444156;28;656884;-68
2021/05/26 08:16:24;;;;;;;2.63;0.60;;;16.00;99.90;;;;;;4455934;28;656191;-67
2021/05/26 08:19:11;;;;;;;1.40;0.70;;;15.90;99.80;;;;;;4443673;28;656503;-67
2021/05/26 08:21:59;;;;;;;2.03;0.60;;;15.60;96.70;;;;;;4433449;28;656555;-67
2021/05/26 08:24:46;;;;;;;6.23;0.97;;;15.70;99.30;;;;;;4455042;28;656542;-67
2021/05/26 08:27:33;;;;;;;2.93;0.83;;;16.00;99.90;;;;;;4432668;28;656574;-68
2021/05/26 08:30:21;;;;;;;4.73;0.80;;;16.20;98.90;;;;;;4447235;28;657171;-68
2021/05/26 08:33:08;;;;;;;2.70;0.80;;;16.00;98.70;;;;;;4431353;28;656680;-68
2021/05/26 08:35:55;;;;;;;3.37;1.00;;;16.10;95.90;;;;;;4454359;28;656984;-67
2021/05/26 08:38:43;;;;;;;8.50;0.83;;;16.00;95.50;;;;;;4437488;28;656584;-69
2021/05/26 08:41:30;;;;;;;6.93;1.00;;;16.30;99.90;;;;;;4451323;28;657591;-67
2021/05/26 08:44:17;;;;;;;2.80;0.70;;;16.50;95.30;;;;;;4435710;28;656315;-69
2021/05/26 08:47:04;;;;;;;2.80;0.80;;;16.30;94.60;;;;;;4454780;28;656726;-68
2021/05/26 08:49:51;;;;;;;5.43;1.02;;;16.30;93.60;;;;;;4441702;28;656374;-67
2021/05/26 08:52:38;;;;;;;5.83;1.03;;;16.50;95.10;;;;;;4426039;28;656798;-67
2021/05/26 08:55:27;;;;;;;9.07;0.80;;;16.70;98.00;;;;;;4451472;28;657766;-67
2021/05/26 08:58:14;;;;;;;3.10;0.80;;;16.80;93.70;;;;;;4424065;28;656254;-67
2021/05/26 09:01:00;;;;;;;2.27;0.73;;;16.90;93.60;;;;;;4450324;28;657537;-68
2021/05/26 09:03:50;;;;;;;5.07;0.90;;;17.10;94.20;;;;;;4426470;28;656756;-69
2021/05/26 09:06:43;;;;;;;4.57;0.77;;;17.10;93.80;;;;;;4431838;28;657333;-69
2021/05/26 09:09:33;;;;;;;8.47;0.67;;;17.00;94.10;;;;;;4429939;28;657626;-67
2021/05/26 09:12:31;;;;;;;1.10;0.40;;;17.10;92.00;;;;;;4419873;28;657438;-67
2021/05/26 09:15:20;;;;;;;1.53;0.57;;;17.10;86.10;;;;;;4430443;28;657170;-67
2021/05/26 09:18:07;;;;;;;2.27;0.60;;;16.90;85.80;;;;;;4438602;28;656354;-69
2021/05/26 09:20:56;;;;;;;2.37;0.67;;;16.90;90.50;;;;;;4450288;28;656750;-68
2021/05/26 09:23:43;;;;;;;0.87;0.50;;;17.40;87.70;;;;;;4429773;28;656382;-68
2021/05/26 09:26:47;;;;;;;6.10;0.90;;;17.30;78.50;;;;;;4450315;28;656375;-67
2021/05/26 09:29:36;;;;;;;2.67;0.50;;;17.40;85.40;;;;;;4389894;28;657223;-67
2021/05/26 09:32:24;;;;;;;1.87;0.60;;;17.40;78.90;;;;;;4425871;28;656674;-67
2021/05/26 09:35:12;;;;;;;2.00;0.77;;;17.40;79.40;;;;;;4449682;28;656583;-67
2021/05/26 09:37:59;;;;;;;2.70;0.70;;;17.40;78.50;;;;;;4420382;28;657341;-68
2021/05/26 09:40:46;;;;;;;7.43;0.67;;;17.90;88.90;;;;;;4449151;28;656091;-67
2021/05/26 09:43:39;;;;;;;2.57;0.60;;;18.00;80.50;;;;;;4430520;28;656782;-68
2021/05/26 09:46:32;;;;;;;4.47;0.90;;;18.10;78.50;;;;;;4422050;28;656926;-67
2021/05/26 09:49:20;;;;;;;2.17;0.77;;;17.80;76.80;;;;;;4404383;28;657115;-67
2021/05/26 09:52:09;;;;;;;3.27;1.00;;;17.70;76.20;;;;;;4421721;28;656354;-68
2021/05/26 09:54:56;;;;;;;5.17;1.00;;;17.70;81.00;;;;;;4445984;28;656181;-67
2021/05/26 09:57:45;;;;;;;1.70;0.70;;;17.60;72.60;;;;;;4426513;28;656542;-67
2021/05/26 10:00:33;;;;;;;4.50;1.10;;;17.90;74.30;;;;;;4446942;28;657296;-67
2021/05/26 10:03:21;;;;;;;3.83;0.60;;;18.10;78.50;;;;;;4445628;28;657209;-67
2021/05/26 10:06:08;;;;;;;2.63;0.80;;;18.30;74.30;;;;;;4430044;28;657070;-68
2021/05/26 10:08:55;;;;;;;7.77;0.77;;;18.30;69.50;;;;;;4445894;28;657751;-67
2021/05/26 10:11:42;;;;;;;3.63;0.90;;;17.80;68.30;;;;;;4426469;28;656858;-69
2021/05/26 10:14:29;;;;;;;2.97;0.70;;;17.40;68.70;;;;;;4447034;28;656440;-67
2021/05/26 10:17:20;;;;;;;10.13;2.73;;;17.30;70.30;;;;;;4442160;28;657536;-68
2021/05/26 10:20:10;;;;;;;5.60;0.90;;;18.10;80.50;;;;;;4421782;28;657671;-69
2021/05/26 10:22:58;;;;;;;3.20;0.60;;;18.20;67.00;;;;;;4438140;28;656885;-69
2021/05/26 10:25:47;;;;;;;2.13;0.80;;;18.30;68.70;;;;;;4453145;28;657403;-67
2021/05/26 10:28:34;;;;;;;2.43;0.80;;;18.30;66.20;;;;;;4430683;28;657323;-68
2021/05/26 10:31:27;;;;;;;4.23;0.83;;;18.40;69.00;;;;;;4444467;28;656367;-68
2021/05/26 10:34:14;;;;;;;3.03;0.80;;;18.90;70.10;;;;;;4430360;28;657220;-68
2021/05/26 10:37:03;;;;;;;6.33;1.03;;;19.00;79.00;;;;;;4449512;28;657203;-67
2021/05/26 10:39:50;;;;;;;2.30;1.10;;;18.80;69.40;;;;;;4419292;28;657485;-68
2021/05/26 10:42:37;;;;;;;5.27;2.00;;;18.60;64.60;;;;;;4431020;28;656948;-69
2021/05/26 10:45:35;;;;;;;2.87;1.10;;;18.40;65.40;;;;;;4446514;28;656330;-67
2021/05/26 10:49:03;;;;;;;7.97;1.87;;;18.90;68.20;;;;;;4417117;28;657216;-69
2021/05/26 10:51:59;;;;;;;2.53;1.10;;;19.40;66.70;;;;;;4401366;28;656777;-68
2021/05/26 10:54:56;;;;;;;4.40;1.77;;;19.60;68.20;;;;;;4425469;28;657051;-68
2021/05/26 10:58:14;;;;;;;3.83;0.70;;;19.30;70.60;;;;;;4425461;28;656617;-68
2021/05/26 11:01:10;;;;;;;3.33;1.00;;;19.60;73.20;;;;;;4425316;28;656467;-67
2021/05/26 11:03:57;;;;;;;2.20;0.80;;;19.80;64.60;;;;;;4405478;28;656590;-69
2021/05/26 11:06:45;;;;;;;2.47;1.00;;;19.80;63.90;;;;;;4451359;28;657081;-67
2021/05/26 11:09:53;;;;;;;2.40;1.00;;;19.80;64.10;;;;;;4446570;28;657065;-69
2021/05/26 11:13:02;;;;;;;2.77;1.10;;;20.20;70.10;;;;;;4427075;28;656439;-67
2021/05/26 11:15:49;;;;;;;3.60;0.70;;;20.00;70.70;;;;;;4428783;28;656432;-68
2021/05/26 11:18:36;;;;;;;2.83;0.93;;;20.10;65.60;;;;;;4450384;28;656821;-68
2021/05/26 11:21:23;;;;;;;2.50;0.80;;;20.10;67.20;;;;;;4428118;28;656674;-67
2021/05/26 11:24:10;;;;;;;3.23;0.83;;;20.40;63.00;;;;;;4453571;28;657016;-67
2021/05/26 11:26:57;;;;;;;5.90;1.23;;;20.50;63.00;;;;;;4433238;28;656653;-69
2021/05/26 11:29:48;;;;;;;6.43;1.07;;;20.50;69.10;;;;;;4456128;28;657116;-69
2021/05/26 11:32:35;;;;;;;1.30;0.83;;;20.90;66.90;;;;;;4429069;28;656839;-67
2021/05/26 11:35:22;;;;;;;3.77;1.00;;;21.00;61.50;;;;;;4447127;28;656575;-68
2021/05/26 11:38:21;;;;;;;3.77;0.90;;;20.80;63.50;;;;;;4451525;28;657183;-67
2021/05/26 11:41:16;;;;;;;1.77;0.60;;;20.80;62.60;;;;;;4403117;28;657408;-68
2021/05/26 11:44:03;;;;;;;5.37;1.20;;;20.00;60.60;;;;;;4399877;28;657648;-68
2021/05/26 11:46:51;;;;;;;7.20;1.07;;;19.40;64.50;;;;;;4447886;28;657691;-68
2021/05/26 11:49:40;;;;;;;3.37;0.70;;;19.00;62.90;;;;;;4429714;28;656823;-68
2021/05/26 11:52:27;;;;;;;4.50;0.90;;;18.90;65.00;;;;;;4442839;28;656669;-68
2021/05/26 11:55:14;;;;;;;1.90;0.60;;;19.00;63.80;;;;;;4427276;28;657165;-68
2021/05/26 11:58:01;;;;;;;3.87;0.80;;;19.50;68.30;;;;;;4451155;28;657347;-68
2021/05/26 12:00:48;;;;;;;1.23;0.73;;;19.50;65.20;;;;;;4432394;28;656489;-69
2021/05/26 12:03:36;;;;;;;3.00;0.97;;;19.50;60.80;;;;;;4455954;28;657459;-68
2021/05/26 12:06:23;;;;;;;1.40;0.83;;;20.20;66.20;;;;;;4427142;28;656628;-68
2021/05/26 12:09:11;;;;;;;2.10;0.90;;;20.50;59.80;;;;;;4451472;28;657369;-67
2021/05/26 12:12:00;;;;;;;2.27;0.67;;;20.10;58.60;;;;;;4423507;28;656696;-68
2021/05/26 12:14:47;;;;;;;2.45;0.90;;;20.10;61.50;;;;;;4431893;28;656535;-69
2021/05/26 12:17:35;;;;;;;4.67;0.97;;;20.30;60.90;;;;;;4455658;28;656642;-68
2021/05/26 12:20:23;;;;;;;2.80;0.90;;;20.20;59.40;;;;;;4449697;28;657215;-68
2021/05/26 12:23:10;;;;;;;4.93;0.93;;;20.10;59.90;;;;;;4435508;28;657344;-68
2021/05/26 12:25:58;;;;;;;5.43;0.93;;;20.10;59.30;;;;;;4405856;28;656749;-68
2021/05/26 12:28:45;;;;;;;2.33;0.90;;;20.60;61.80;;;;;;4420441;28;657429;-68
2021/05/26 12:31:32;;;;;;;3.03;0.90;;;21.10;61.50;;;;;;4405539;28;656671;-68
2021/05/26 12:34:21;;;;;;;6.80;0.83;;;21.30;59.60;;;;;;4429449;28;657737;-67
2021/05/26 12:37:08;;;;;;;2.90;0.80;;;21.20;58.00;;;;;;4403544;28;656638;-67
2021/05/26 12:39:56;;;;;;;3.30;0.90;;;20.60;57.60;;;;;;4412332;28;656819;-66
2021/05/26 12:42:43;;;;;;;2.90;0.93;;;20.80;59.00;;;;;;4393064;28;656386;-67
2021/05/26 12:45:30;;;;;;;4.37;1.07;;;21.20;58.30;;;;;;4417978;28;657201;-67
2021/05/26 12:48:17;;;;;;;4.17;1.07;;;20.30;58.90;;;;;;4388019;28;656764;-67
2021/05/26 12:51:18;;;;;;;2.97;1.20;;;19.50;59.90;;;;;;4429861;28;657367;-67
2021/05/26 12:54:06;;;;;;;1.50;0.70;;;19.50;63.50;;;;;;4405821;28;656965;-67
2021/05/26 12:57:05;;;;;;;4.80;1.17;;;20.00;60.90;;;;;;4400386;28;656837;-67
2021/05/26 12:59:53;;;;;;;3.80;0.80;;;20.40;62.80;;;;;;4391047;28;656242;-67
2021/05/26 13:02:41;;;;;;;2.40;0.87;;;20.40;59.80;;;;;;4425894;28;656539;-67
2021/05/26 13:05:31;;;;;;;8.13;1.07;;;21.00;63.60;;;;;;4393048;28;657231;-67
2021/05/26 13:08:18;;;;;;;3.77;1.00;;;21.00;58.80;;;;;;4416583;28;656595;-68
2021/05/26 13:11:07;;;;;;;1.20;0.70;;;20.70;61.80;;;;;;4427260;28;657359;-67
2021/05/26 13:13:54;;;;;;;3.30;1.00;;;20.20;57.80;;;;;;4389364;28;657399;-67
2021/05/26 13:16:42;;;;;;;2.53;0.80;;;20.00;58.90;;;;;;4414490;28;656754;-68
2021/05/26 13:19:29;;;;;;;2.67;0.80;;;20.20;56.70;;;;;;4414011;28;657495;-67
2021/05/26 13:22:16;;;;;;;2.77;0.83;;;19.70;57.00;;;;;;4416766;28;656644;-67
2021/05/26 13:25:04;;;;;;;2.33;1.10;;;19.50;58.30;;;;;;4405528;28;657227;-68
2021/05/26 13:27:52;;;;;;;1.83;0.80;;;19.50;61.30;;;;;;4420049;28;656647;-67
2021/05/26 13:30:40;;;;;;;2.47;0.87;;;19.00;59.70;;;;;;4413725;28;657414;-67
2021/05/26 13:33:27;;;;;;;3.50;1.10;;;19.00;59.70;;;;;;4417650;28;657737;-68
2021/05/26 13:36:14;;;;;;;2.37;0.80;;;18.90;59.50;;;;;;4435380;28;656307;-67
2021/05/26 13:39:01;;;;;;;5.70;1.20;;;19.10;60.30;;;;;;4432733;28;656586;-68
2021/05/26 13:41:48;;;;;;;1.50;0.80;;;19.10;61.60;;;;;;4410573;28;656611;-67
2021/05/26 13:44:36;;;;;;;2.20;0.90;;;18.90;61.40;;;;;;4424574;28;658389;-67
2021/05/26 13:47:23;;;;;;;3.50;1.50;;;19.00;63.00;;;;;;4413872;28;656578;-67
2021/05/26 13:50:15;;;;;;;3.83;1.00;;;19.00;58.80;;;;;;4425557;28;656546;-67
2021/05/26 13:53:03;;;;;;;3.17;1.10;;;18.80;59.30;;;;;;4383782;28;657414;-69
2021/05/26 13:55:50;;;;;;;4.33;1.10;;;19.10;60.00;;;;;;4426760;28;657346;-67
2021/05/26 13:58:37;;;;;;;3.43;1.00;;;19.50;58.60;;;;;;4430501;28;656568;-67
2021/05/26 14:01:24;;;;;;;7.33;1.03;;;19.50;59.40;;;;;;4413775;28;656748;-68
2021/05/26 14:04:11;;;;;;;3.63;1.40;;;19.30;59.60;;;;;;4428112;28;657038;-67
2021/05/26 14:06:58;;;;;;;2.90;1.50;;;19.20;59.60;;;;;;4409912;28;657700;-66
2021/05/26 14:09:45;;;;;;;4.00;1.33;;;19.30;61.80;;;;;;4424772;28;658025;-67
2021/05/26 14:12:33;;;;;;;2.77;1.03;;;19.90;61.80;;;;;;4413534;28;656702;-67
2021/05/26 14:15:20;;;;;;;3.37;1.00;;;20.40;60.00;;;;;;4422708;28;658291;-68
2021/05/26 14:18:08;;;;;;;2.90;1.00;;;21.10;61.30;;;;;;4417023;28;656482;-68
2021/05/26 14:20:55;;;;;;;2.30;0.77;;;21.80;61.40;;;;;;4424963;28;657366;-67
2021/05/26 14:23:42;;;;;;;3.57;0.90;;;22.30;55.00;;;;;;4416748;28;656388;-69
2021/05/26 14:26:29;;;;;;;1.13;0.70;;;22.40;53.50;;;;;;4445191;28;656948;-67
2021/05/26 14:29:16;;;;;;;2.20;1.00;;;22.50;54.30;;;;;;4436999;28;656901;-67
2021/05/26 14:32:04;;;;;;;2.43;0.87;;;22.60;53.60;;;;;;4422641;28;656457;-67